Date,TemperatureHighF,TemperatureAvgF,TemperatureLowF,DewpointHighF,DewpointAvgF,DewpointLowF,HumidityHigh,HumidityAvg,HumidityLow,PressureMaxIn,PressureMinIn,WindSpeedMaxMPH,WindSpeedAvgMPH,GustSpeedMaxMPH,PrecipitationSumIn
2013-3-1,37,33,31,32,27,25,91,80,66,29.75,29.59,16,2,16,0.00
2013-3-2,35,30,25,27,25,21,86,80,67,29.75,29.70,14,2,14,0.01
2013-3-3,34,28,24,26,22,19,92,79,71,29.73,29.65,12,1,12,0.02
2013-3-4,32,27,25,24,21,19,84,76,66,29.89,29.67,16,2,16,0.00
2013-3-5,42,31,26,29,24,20,88,75,57,30.13,29.89,9,1,9,0.00
2013-3-6,38,34,29,30,27,22,88,75,61,30.23,30.12,18,2,18,0.00
2013-3-7,38,33,30,28,24,21,84,70,60,30.21,30.13,11,1,11,0.01
2013-3-8,43,31,23,27,24,19,92,74,45,30.31,30.11,15,1,15,0.08
2013-3-9,53,32,16,28,21,13,90,68,32,30.39,30.29,9,1,9,0.00
2013-3-10,51,35,21,31,25,17,88,69,39,30.41,30.24,7,1,16,0.00
2013-3-11,42,38,34,36,32,30,86,78,65,30.28,30.08,13,1,13,0.00
2013-3-12,45,40,38,43,38,34,94,92,84,30.08,29.71,15,1,15,1.12
2013-3-13,42,36,27,37,31,25,93,81,58,29.83,29.75,9,1,9,0.00
2013-3-14,32,25,16,26,16,8,91,69,50,29.90,29.74,18,2,18,0.00
2013-3-15,34,24,14,27,14,5,88,65,38,29.92,29.63,12,1,12,0.06
2013-3-16,31,25,18,22,14,10,92,65,45,29.93,29.75,12,1,12,0.00
2013-3-17,28,19,9,14,7,2,87,63,40,30.39,29.93,18,2,18,0.00
2013-3-18,34,21,4,20,7,-1,83,58,30,30.50,30.24,10,0,10,0.00
2013-3-19,31,28,26,27,24,21,89,86,76,30.24,29.76,12,1,12,0.70
2013-3-20,34,27,18,26,21,12,89,78,65,29.78,29.69,17,1,17,0.01
2013-3-21,37,24,10,19,13,6,92,67,38,29.80,29.65,12,1,12,0.00
2013-3-22,36,24,8,25,16,4,87,73,46,29.78,29.67,13,1,16,0.00
2013-3-23,37,30,22,25,21,16,87,69,49,29.82,29.68,20,2,20,0.00
2013-3-24,39,33,22,26,23,17,85,68,54,29.89,29.81,13,2,13,0.00
2013-3-25,44,31,17,29,23,14,90,73,46,29.84,29.59,11,0,11,0.00
2013-3-26,45,36,26,29,25,21,86,67,40,29.83,29.63,13,1,13,0.00
2013-3-27,46,34,21,32,25,18,88,71,47,29.95,29.81,14,1,14,0.00
2013-3-28,48,38,33,34,31,28,96,77,51,30.07,29.94,11,1,11,0.00
2013-3-29,47,38,32,35,32,29,90,78,54,30.10,30.03,17,1,17,0.00
2013-3-30,50,37,26,31,24,19,91,66,30,30.14,30.07,16,1,16,0.00
2013-3-31,52,38,22,36,26,18,90,64,35,30.15,29.78,15,1,15,0.07